»·PEaware :: N172SP KSNA-KSNA

N172SP :: KSNA-KSNA

FLIGHT INFORMATION

Flight Status: Arrived
Operator: Privately registered:
United States
More flights under this callsign
Pilot: Carson T. (20437)
Aircraft: CESSNA 172 SKYHAWK
(C172)
More flights by this aircraft type
Origin: KSNA John Wayne-Orange Co
United States
Destination: KSNA John Wayne-Orange Co
United States
More flights between these airports :: More routes between these airports
Route: SLI
File this flight plan on PilotEdge
Remarks: I-1 Rating, vectors for the ILS RWY 20R approach.
Altitude:
(Current/Filed)
3,000ft
Speed:
(Current/Filed)
150kts
Departed: 16-Oct-18 01:28 PM
Arrived: 16-Oct-18 01:51 PM
Distance/Time
Traveled:
0nm/0:22
Distance/Time
To Go:
Arrived

Flight Plot

Page will automatically refresh every two minutes.


Map Options




Map Legend


Flown Route
Filed Route
Departure Airport
Arrival Airport
Navaid (VOR, NDB)
Fix

Horizontal Profiles

Position Reports

Time Latitude Longitude Heading Altitude Ground
Speed
16-Oct-18 13:00 33.676202 -117.871107 211 60ft 0kts
16-Oct-18 13:01 33.676202 -117.871107 211 60ft 0kts
16-Oct-18 13:02 33.676202 -117.871107 211 60ft 0kts
16-Oct-18 13:03 33.676202 -117.871107 211 60ft 0kts
16-Oct-18 13:04 33.676202 -117.871107 211 60ft 0kts
16-Oct-18 13:05 33.676202 -117.871107 211 60ft 0kts
16-Oct-18 13:06 33.676202 -117.871107 211 60ft 0kts
16-Oct-18 13:07 33.676202 -117.871107 211 60ft 0kts
16-Oct-18 13:08 33.676202 -117.871107 211 60ft 0kts
16-Oct-18 13:09 33.676202 -117.871107 211 60ft 0kts
16-Oct-18 13:10 33.676202 -117.871107 211 60ft 0kts
16-Oct-18 13:11 33.676202 -117.871107 211 60ft 0kts
16-Oct-18 13:12 33.676202 -117.871107 211 60ft 0kts
16-Oct-18 13:13 33.676202 -117.871107 211 60ft 0kts
16-Oct-18 13:14 33.676202 -117.871107 211 60ft 0kts
16-Oct-18 13:15 33.676202 -117.871107 211 60ft 0kts
16-Oct-18 13:16 33.676202 -117.871107 211 60ft 0kts
16-Oct-18 13:17 33.676202 -117.871107 211 60ft 0kts
16-Oct-18 13:18 33.676202 -117.871107 211 60ft 0kts
16-Oct-18 13:19 33.676202 -117.871107 211 60ft 0kts
16-Oct-18 13:20 33.675981 -117.870899 129 60ft 0kts
16-Oct-18 13:21 33.675734 -117.870498 124 60ft 0kts
16-Oct-18 13:22 33.677177 -117.869385 28 60ft 16kts
16-Oct-18 13:23 33.680856 -117.867236 28 60ft 11kts
16-Oct-18 13:24 33.681189 -117.866393 115 60ft 0kts
16-Oct-18 13:25 33.681189 -117.866393 115 60ft 0kts
16-Oct-18 13:26 33.681189 -117.866393 115 60ft 0kts
16-Oct-18 13:27 33.681189 -117.866393 115 60ft 0kts
16-Oct-18 13:28 33.681189 -117.866393 114 60ft 0kts
16-Oct-18 13:29 33.681165 -117.866336 116 60ft 5kts
16-Oct-18 13:30 33.663790 -117.876930 215 397ft 113kts
16-Oct-18 13:31 33.643392 -117.905715 234 1119ft 114kts
16-Oct-18 13:32 33.624010 -117.935898 232 1787ft 112kts
16-Oct-18 13:33 33.609438 -117.966795 266 2494ft 107kts
16-Oct-18 13:34 33.623206 -117.993864 320 3183ft 96kts
16-Oct-18 13:35 33.647607 -118.018927 322 3087ft 124kts
16-Oct-18 13:36 33.677222 -118.014986 33 3072ft 126kts
16-Oct-18 13:37 33.706850 -117.993671 33 3069ft 120kts
16-Oct-18 13:38 33.735436 -117.973710 33 3069ft 117kts
16-Oct-18 13:39 33.763839 -117.954238 33 3068ft 118kts
16-Oct-18 13:40 33.791977 -117.934858 33 3066ft 115kts
16-Oct-18 13:41 33.816763 -117.912094 52 3064ft 111kts
16-Oct-18 13:42 33.835377 -117.882275 52 3063ft 111kts
16-Oct-18 13:43 33.853715 -117.851874 52 3063ft 112kts
16-Oct-18 13:44 33.871940 -117.821160 52 3064ft 113kts
16-Oct-18 13:45 33.883776 -117.788109 114 3060ft 119kts
16-Oct-18 13:46 33.859759 -117.759892 132 3068ft 121kts
16-Oct-18 13:47 33.827544 -117.765940 222 3066ft 129kts
16-Oct-18 13:48 33.798243 -117.792424 207 2717ft 142kts
16-Oct-18 13:49 33.764169 -117.813302 203 1939ft 132kts
16-Oct-18 13:50 33.731850 -117.833336 205 1213ft 130kts
16-Oct-18 13:51 33.704288 -117.850781 204 602ft 95kts
16-Oct-18 13:52 33.684435 -117.863303 202 173ft 67kts
16-Oct-18 13:53 33.675970 -117.869795 297 60ft 0kts
16-Oct-18 13:54 33.675970 -117.869795 297 60ft 0kts
16-Oct-18 13:55 33.676593 -117.871240 302 60ft 9kts
16-Oct-18 13:56 33.676606 -117.871468 207 60ft 0kts
16-Oct-18 13:57 33.676606 -117.871468 207 60ft 0kts

Navigation Log

Ident Type
1. KSNA Airport
2. SLI Navaid
3. KSNA Airport